KRBD/RBD METAR and TAF weather

Enter ICAO airport designator
Station Type Date Time Source
KRBD METAR 2019/10/18 10:53 UTC NOAA

KRBD 181053Z AUTO 14005KT 10SM CLR 10/08 A2990 RMK AO2 SLP121 T01000078


Station Type Date Time Source
KRBD Decoded METAR 2019/10/18 10:53 UTC NOAA

DALLAS EXECUTIVE AIRPORT, TX, United States (KRBD) 32-41N 096-52W 203M
Oct 18, 2019 - 06:53 AM EDT / 2019.10.18 1053 UTC
Wind: from the SE (140 degrees) at 6 MPH (5 KT):0
Visibility: 10 mile(s):0
Sky conditions: clear
Temperature: 50.0 F (10.0 C)
Dew Point: 46.0 F (7.8 C)
Relative Humidity: 86%
Pressure (altimeter): 29.9 in. Hg (1012 hPa)
ob: KRBD 181053Z AUTO 14005KT 10SM CLR 10/08 A2990 RMK AO2 SLP121 T01000078
cycle: 11

Station Type Date Time Source
KRBD TAF UTC NOAA

Error!

Example: see airport list